createdAt,value
2022-08-30T00:00:40.815Z,286.05
2022-08-30T00:03:12.345Z,282.63
2022-08-30T00:05:40.583Z,307.63
2022-08-30T00:08:08.834Z,339.90
2022-08-30T00:10:36.817Z,318.38
2022-08-30T00:13:06.617Z,342.77
2022-08-30T00:15:35.298Z,325.27
2022-08-30T00:18:03.214Z,335.70
2022-08-30T00:20:34.806Z,343.10
2022-08-30T00:23:03.589Z,328.70
2022-08-30T00:25:31.782Z,340.27
2022-08-30T00:27:59.667Z,343.98
2022-08-30T00:30:27.882Z,330.98
2022-08-30T00:32:55.725Z,335.10
2022-08-30T00:35:24.231Z,349.40
2022-08-30T00:37:53.587Z,298.40
2022-08-30T00:40:27.371Z,255.57
2022-08-30T00:42:59.250Z,319.75
2022-08-30T00:45:30.790Z,301.83
2022-08-30T00:47:58.882Z,268.92
2022-08-30T00:50:30.209Z,281.70
2022-08-30T00:53:02.021Z,292.70
2022-08-30T00:55:30.850Z,262.20
2022-08-30T00:58:02.333Z,256.10
2022-08-30T01:00:32.317Z,306.88
2022-08-30T01:03:00.325Z,268.23
2022-08-30T01:05:28.998Z,257.15
2022-08-30T01:07:57.361Z,292.08
2022-08-30T01:10:26.632Z,226.13
2022-08-30T01:12:54.534Z,144.02
2022-08-30T01:15:22.614Z,317.05
2022-08-30T01:17:51.097Z,281.90
2022-08-30T01:20:22.817Z,253.45
2022-08-30T01:23:13.536Z,92.65
2022-08-30T01:25:43.345Z,32.38
2022-08-30T01:28:13.474Z,42.70
2022-08-30T01:30:43.175Z,40.25
2022-08-30T01:33:12.875Z,55.60
2022-08-30T01:35:53.895Z,44.95
2022-08-30T01:38:25.475Z,197.18
2022-08-30T01:40:59.319Z,236.18
2022-08-30T01:43:27.713Z,201.52
2022-08-30T01:45:55.717Z,184.55
2022-08-30T01:48:30.945Z,263.05
2022-08-30T01:50:59.824Z,224.50
2022-08-30T01:53:29.551Z,236.63
2022-08-30T01:55:57.616Z,244.25
2022-08-30T01:58:25.704Z,243.57
2022-08-30T02:00:53.628Z,240.95
2022-08-30T02:03:21.662Z,237.93
2022-08-30T02:05:49.876Z,262.27
2022-08-30T02:08:18.070Z,285.77
2022-08-30T02:10:47.426Z,263.00
2022-08-30T02:13:15.730Z,269.25
2022-08-30T02:15:43.757Z,260.98
2022-08-30T02:18:11.874Z,284.67
2022-08-30T02:20:40.919Z,263.77
2022-08-30T02:23:08.881Z,277.08
2022-08-30T02:25:36.725Z,275.60
2022-08-30T02:28:06.501Z,265.35
2022-08-30T02:30:34.613Z,284.25
2022-08-30T02:33:02.676Z,280.90
2022-08-30T02:35:31.209Z,288.15
2022-08-30T02:37:59.145Z,294.60
2022-08-30T02:40:27.078Z,304.60
2022-08-30T02:42:58.772Z,298.10
2022-08-30T02:45:28.941Z,298.25
2022-08-30T02:47:57.014Z,286.70
2022-08-30T02:50:25.729Z,304.63
2022-08-30T02:52:54.450Z,292.23
2022-08-30T02:55:24.213Z,294.38
2022-08-30T02:57:52.228Z,317.88
2022-08-30T03:00:22.196Z,282.27
2022-08-30T03:02:51.450Z,293.38
2022-08-30T03:05:19.872Z,292.92
2022-08-30T03:07:48.583Z,268.52
2022-08-30T03:10:17.521Z,296.13
2022-08-30T03:12:47.950Z,295.15
2022-08-30T03:15:16.687Z,301.52
2022-08-30T03:17:44.557Z,293.67
2022-08-30T03:20:14.286Z,278.42
2022-08-30T03:22:42.285Z,130.13
2022-08-30T03:25:10.999Z,284.45
2022-08-30T03:27:38.896Z,247.32
2022-08-30T03:30:08.710Z,253.32
2022-08-30T03:32:37.095Z,257.95
2022-08-30T03:35:05.969Z,215.55
2022-08-30T03:37:35.385Z,51.08
2022-08-30T03:40:04.435Z,33.75
2022-08-30T03:42:34.199Z,201.75
2022-08-30T03:45:03.108Z,259.25
2022-08-30T03:47:30.990Z,255.73
2022-08-30T03:49:58.881Z,273.00
2022-08-30T03:52:27.974Z,278.02
2022-08-30T03:54:57.530Z,275.38
2022-08-30T03:57:25.780Z,282.45
2022-08-30T03:59:53.717Z,294.15
2022-08-30T04:02:22.131Z,269.67
2022-08-30T04:04:51.051Z,270.85
2022-08-30T04:07:19.362Z,274.27
2022-08-30T04:09:47.418Z,266.58
2022-08-30T04:12:18.409Z,266.88
2022-08-30T04:14:51.055Z,264.20
2022-08-30T04:17:18.946Z,280.25
2022-08-30T04:19:46.894Z,282.85
2022-08-30T04:22:14.717Z,281.25
2022-08-30T04:24:42.718Z,286.00
2022-08-30T04:27:11.124Z,291.55
2022-08-30T04:29:40.505Z,286.13
2022-08-30T04:32:08.652Z,290.58
2022-08-30T04:34:36.971Z,278.20
2022-08-30T04:37:04.929Z,300.05
2022-08-30T04:39:33.291Z,279.48
2022-08-30T04:42:01.494Z,284.15
2022-08-30T04:44:29.496Z,276.10
2022-08-30T04:46:59.053Z,272.23
2022-08-30T04:49:27.007Z,278.20
2022-08-30T04:51:55.814Z,231.70
2022-08-30T04:54:24.059Z,266.70
2022-08-30T04:56:51.910Z,270.05
2022-08-30T04:59:19.752Z,239.85
2022-08-30T05:01:48.300Z,274.73
2022-08-30T05:04:17.661Z,272.50
2022-08-30T05:06:45.571Z,273.95
2022-08-30T05:09:13.492Z,252.20
2022-08-30T05:11:43.280Z,171.90
2022-08-30T05:14:11.798Z,252.00
2022-08-30T05:16:40.168Z,256.67
2022-08-30T05:19:08.429Z,212.57
2022-08-30T05:21:40.720Z,202.35
2022-08-30T05:24:09.423Z,229.23
2022-08-30T05:26:39.189Z,226.00
2022-08-30T05:29:07.229Z,202.98
2022-08-30T05:31:37.485Z,285.35
2022-08-30T05:34:08.386Z,206.73
2022-08-30T05:36:40.680Z,273.60
2022-08-30T05:39:10.657Z,270.70
2022-08-30T05:41:39.832Z,255.93
2022-08-30T05:44:09.973Z,286.77
2022-08-30T05:46:39.858Z,284.92
2022-08-30T05:49:11.120Z,227.18
2022-08-30T05:51:43.575Z,224.25
2022-08-30T05:54:12.329Z,287.27
2022-08-30T05:56:41.619Z,193.30
2022-08-30T05:59:10.387Z,219.80
2022-08-30T06:01:41.222Z,209.82
2022-08-30T06:04:12.014Z,233.02
2022-08-30T06:06:43.565Z,186.57
2022-08-30T06:09:13.429Z,108.32
2022-08-30T06:11:43.773Z,92.43
2022-08-30T06:14:12.031Z,266.58
2022-08-30T06:16:41.318Z,278.58
2022-08-30T06:19:11.243Z,205.57
2022-08-30T06:21:41.974Z,218.85
2022-08-30T06:24:11.854Z,194.38
2022-08-30T06:26:42.062Z,137.68
2022-08-30T06:29:10.987Z,150.15
2022-08-30T06:31:39.633Z,247.98
2022-08-30T06:34:08.299Z,234.32
2022-08-30T06:36:36.764Z,222.98
2022-08-30T06:39:06.987Z,170.93
2022-08-30T06:41:37.001Z,223.50
2022-08-30T06:44:06.562Z,92.63
2022-08-30T06:46:36.907Z,28.25
2022-08-30T06:49:06.343Z,9.23
2022-08-30T06:51:36.195Z,16.38
2022-08-30T06:54:10.641Z,65.95
2022-08-30T06:56:48.724Z,31.77
2022-08-30T06:59:25.814Z,15.35
2022-08-30T07:01:55.367Z,15.50
2022-08-30T07:04:23.612Z,11.57
2022-08-30T07:06:51.881Z,18.38
2022-08-30T07:09:22.864Z,149.63
2022-08-30T07:11:52.020Z,183.43
2022-08-30T07:14:20.154Z,70.18
2022-08-30T07:16:51.066Z,227.70
2022-08-30T07:19:20.572Z,147.35
2022-08-30T07:21:51.038Z,69.65
2022-08-30T07:24:19.466Z,187.38
2022-08-30T07:26:52.328Z,197.88
2022-08-30T07:29:21.452Z,191.73
2022-08-30T07:31:52.565Z,299.60
2022-08-30T07:34:22.437Z,302.10
2022-08-30T07:36:53.089Z,327.73
2022-08-30T07:39:21.800Z,332.73
2022-08-30T07:41:52.197Z,345.67
2022-08-30T07:44:20.538Z,332.75
2022-08-30T07:46:51.375Z,271.38
2022-08-30T07:49:20.132Z,330.50
2022-08-30T07:51:49.157Z,340.35
2022-08-30T07:54:17.273Z,307.00
2022-08-30T07:56:45.458Z,359.80
2022-08-30T07:59:15.156Z,313.42
2022-08-30T08:01:43.522Z,268.15
2022-08-30T08:04:12.390Z,218.77
2022-08-30T08:06:41.235Z,208.95
2022-08-30T08:09:11.263Z,298.70
2022-08-30T08:11:40.769Z,271.73
2022-08-30T08:14:09.247Z,322.67
2022-08-30T08:16:39.368Z,336.55
2022-08-30T08:19:09.441Z,252.43
2022-08-30T08:21:38.598Z,239.95
2022-08-30T08:24:06.855Z,269.48
2022-08-30T08:26:35.799Z,317.02
2022-08-30T08:29:04.071Z,258.00
2022-08-30T08:31:33.398Z,239.68
2022-08-30T08:34:06.766Z,353.55
2022-08-30T08:36:37.293Z,264.98
2022-08-30T08:39:12.329Z,329.75
2022-08-30T08:41:52.445Z,217.93
2022-08-30T08:44:34.287Z,232.77
2022-08-30T08:47:23.068Z,388.25
2022-08-30T08:50:04.597Z,366.38
2022-08-30T08:53:01.087Z,384.55
2022-08-30T08:55:30.645Z,221.30
2022-08-30T08:57:59.360Z,161.45
2022-08-30T09:00:27.555Z,97.70
2022-08-30T09:02:59.897Z,142.88
2022-08-30T09:05:36.780Z,259.85
2022-08-30T09:08:11.012Z,324.30
2022-08-30T09:10:50.759Z,410.80
2022-08-30T09:13:30.428Z,326.30
2022-08-30T09:16:06.543Z,286.92
2022-08-30T09:18:45.542Z,318.77
2022-08-30T09:21:24.777Z,251.82
2022-08-30T09:23:59.159Z,66.97
2022-08-30T09:26:32.048Z,16.48
2022-08-30T09:32:16.147Z,9.40
2022-08-30T09:34:44.908Z,34.58
2022-08-30T09:37:30.299Z,13.27
2022-08-30T09:40:01.305Z,24.73
2022-08-30T09:42:31.290Z,153.77
2022-08-30T09:45:11.918Z,318.35
2022-08-30T09:47:41.770Z,296.38
2022-08-30T09:50:12.230Z,300.05
2022-08-30T09:53:01.737Z,291.30
2022-08-30T09:55:48.083Z,294.42
2022-08-30T09:58:25.709Z,259.55
2022-08-30T10:01:04.845Z,282.38
2022-08-30T10:03:40.569Z,233.88
2022-08-30T10:06:22.016Z,328.20
2022-08-30T10:09:00.851Z,349.67
2022-08-30T10:11:41.489Z,358.10
2022-08-30T10:14:45.425Z,361.52
2022-08-30T10:17:19.462Z,437.25
2022-08-30T10:20:03.782Z,458.40
2022-08-30T10:22:35.727Z,412.33
2022-08-30T10:25:16.156Z,432.08
2022-08-30T10:27:48.686Z,436.55
2022-08-30T10:30:18.193Z,346.42
2022-08-30T10:32:51.069Z,415.80
2022-08-30T10:35:21.918Z,453.30
2022-08-30T10:37:52.488Z,456.88
2022-08-30T10:40:43.838Z,441.73
2022-08-30T10:43:18.644Z,458.45
2022-08-30T10:45:48.647Z,440.08
2022-08-30T10:48:20.599Z,445.13
2022-08-30T10:50:53.667Z,455.88
2022-08-30T10:53:27.574Z,462.67
2022-08-30T10:56:02.603Z,462.67
2022-08-30T10:58:32.883Z,475.17
2022-08-30T11:01:12.840Z,475.50
2022-08-30T11:04:25.015Z,497.98
2022-08-30T11:06:59.664Z,446.45
2022-08-30T11:09:42.719Z,469.60
2022-08-30T11:12:26.608Z,502.23
2022-08-30T11:14:55.260Z,470.48
2022-08-30T11:17:27.345Z,479.27
2022-08-30T11:19:59.782Z,485.60
2022-08-30T11:22:30.170Z,469.17
2022-08-30T11:25:10.224Z,487.10
2022-08-30T11:27:51.465Z,438.38
2022-08-30T11:30:51.343Z,482.33
2022-08-30T11:33:47.719Z,483.67
2022-08-30T11:36:49.298Z,464.75
2022-08-30T11:39:51.088Z,491.67
2022-08-30T11:45:45.873Z,476.67
2022-08-30T11:48:53.932Z,460.83
2022-08-30T11:55:02.646Z,478.05
2022-08-30T11:57:33.260Z,466.15
2022-08-30T12:00:10.329Z,468.92
2022-08-30T12:02:47.333Z,452.30
2022-08-30T12:06:01.141Z,446.70
2022-08-30T12:08:59.607Z,484.10
2022-08-30T12:12:04.619Z,483.80
2022-08-30T12:14:49.010Z,499.63
2022-08-30T12:17:43.399Z,516.00
2022-08-30T12:20:29.111Z,303.55
2022-08-30T12:22:57.994Z,503.48
2022-08-30T12:25:32.860Z,500.42
2022-08-30T12:28:16.974Z,467.45
2022-08-30T12:30:46.727Z,518.20
2022-08-30T12:33:18.183Z,497.52
2022-08-30T12:35:48.605Z,473.67
2022-08-30T12:38:27.462Z,441.17
2022-08-30T12:41:01.505Z,517.90
2022-08-30T12:43:33.161Z,475.00
2022-08-30T12:46:11.666Z,514.47
2022-08-30T12:48:41.147Z,438.05
2022-08-30T12:51:37.896Z,405.80
2022-08-30T12:54:09.786Z,415.55
2022-08-30T12:57:19.072Z,456.20
2022-08-30T12:59:58.517Z,460.85
2022-08-30T13:02:29.244Z,456.35
2022-08-30T13:04:57.843Z,475.08
2022-08-30T13:07:30.492Z,451.30
2022-08-30T13:10:07.304Z,452.15
2022-08-30T13:12:38.336Z,410.33
2022-08-30T13:15:21.829Z,496.98
2022-08-30T13:17:49.779Z,453.98
2022-08-30T13:20:26.038Z,311.55
2022-08-30T13:23:07.155Z,306.63
2022-08-30T13:25:35.629Z,215.50
2022-08-30T13:28:05.223Z,348.13
2022-08-30T13:30:34.189Z,311.23
2022-08-30T13:33:02.493Z,333.27
2022-08-30T13:35:31.243Z,357.77
2022-08-30T13:38:01.405Z,308.42
2022-08-30T13:40:30.811Z,153.45
2022-08-30T13:42:58.954Z,61.20
2022-08-30T13:45:42.899Z,36.92
2022-08-30T13:48:11.904Z,149.55
2022-08-30T13:50:39.909Z,275.13
2022-08-30T13:53:09.222Z,226.50
2022-08-30T13:55:39.020Z,297.50
2022-08-30T13:58:08.617Z,453.35
2022-08-30T14:00:38.102Z,482.85
2022-08-30T14:03:06.427Z,407.77
2022-08-30T14:06:04.935Z,482.75
2022-08-30T14:08:45.581Z,503.83
2022-08-30T14:11:19.433Z,538.38
2022-08-30T14:16:45.145Z,424.20
2022-08-30T14:19:15.680Z,412.55
2022-08-30T14:21:49.114Z,386.23
2022-08-30T14:24:30.409Z,418.30
2022-08-30T14:26:59.871Z,345.95
2022-08-30T14:29:30.139Z,258.45
2022-08-30T14:32:00.322Z,293.08
2022-08-30T14:34:34.437Z,222.82
2022-08-30T14:37:07.080Z,384.23
2022-08-30T14:39:39.121Z,354.63
2022-08-30T14:44:56.479Z,424.45
2022-08-30T14:47:29.560Z,382.25
2022-08-30T14:50:01.047Z,449.60
2022-08-30T14:52:29.634Z,435.15
2022-08-30T14:55:05.159Z,412.55
2022-08-30T14:57:38.702Z,490.45
2022-08-30T15:00:17.539Z,489.85
2022-08-30T15:02:48.225Z,473.85
2022-08-30T15:05:18.966Z,486.27
2022-08-30T15:07:53.127Z,539.90
2022-08-30T15:10:25.184Z,517.30
2022-08-30T15:13:04.902Z,430.13
2022-08-30T15:15:42.400Z,467.60
2022-08-30T15:18:10.499Z,40.67
2022-08-30T15:20:40.823Z,391.65
2022-08-30T15:23:08.989Z,151.88
2022-08-30T15:25:37.400Z,507.27
2022-08-30T15:28:11.516Z,518.03
2022-08-30T15:30:41.486Z,505.17
2022-08-30T15:33:10.878Z,104.95
2022-08-30T15:35:42.005Z,313.92
2022-08-30T15:38:10.459Z,279.65
2022-08-30T15:40:40.622Z,9.15
2022-08-30T15:43:08.758Z,9.82
2022-08-30T15:45:38.684Z,9.38
2022-08-30T15:48:06.690Z,79.95
2022-08-30T15:50:35.821Z,375.00
2022-08-30T15:53:05.097Z,462.15
2022-08-30T15:55:35.440Z,500.70
2022-08-30T15:58:03.976Z,549.63
2022-08-30T16:00:33.138Z,424.45
2022-08-30T16:03:02.869Z,333.33
2022-08-30T16:05:31.199Z,352.00
2022-08-30T16:07:59.563Z,401.48
2022-08-30T16:10:27.428Z,117.38
2022-08-30T16:13:02.948Z,13.52
2022-08-30T16:15:32.065Z,310.77
2022-08-30T16:18:00.041Z,395.52
2022-08-30T16:20:29.472Z,318.77
2022-08-30T16:22:57.465Z,391.98
2022-08-30T16:25:25.716Z,278.05
2022-08-30T16:28:09.516Z,252.90
2022-08-30T16:30:37.550Z,34.08
2022-08-30T16:33:06.039Z,42.47
2022-08-30T16:35:35.454Z,322.45
2022-08-30T16:38:03.461Z,55.03
2022-08-30T16:40:31.712Z,176.00
2022-08-30T16:42:59.718Z,18.80
2022-08-30T16:45:31.332Z,12.88
2022-08-30T16:48:02.307Z,29.85
2022-08-30T16:50:30.166Z,10.77
2022-08-30T16:53:00.241Z,12.25
2022-08-30T16:55:28.990Z,172.52
2022-08-30T16:57:56.952Z,462.98
2022-08-30T17:00:25.098Z,422.55
2022-08-30T17:02:56.390Z,439.65
2022-08-30T17:05:24.466Z,445.60
2022-08-30T17:07:52.414Z,484.20
2022-08-30T17:10:23.336Z,481.38
2022-08-30T17:12:54.219Z,460.42
2022-08-30T17:15:22.167Z,471.60
2022-08-30T17:17:50.317Z,491.50
2022-08-30T17:20:21.097Z,491.80
2022-08-30T17:22:49.142Z,478.30
2022-08-30T17:25:17.043Z,499.30
2022-08-30T17:27:46.356Z,494.90
2022-08-30T17:30:14.458Z,455.80
2022-08-30T17:32:42.383Z,464.60
2022-08-30T17:35:10.564Z,477.48
2022-08-30T17:37:40.342Z,190.55
2022-08-30T17:40:14.331Z,9.27
2022-08-30T17:42:44.039Z,8.88
2022-08-30T17:45:16.178Z,9.13
2022-08-30T17:47:45.028Z,16.30
2022-08-30T17:50:14.132Z,8.57
2022-08-30T17:52:42.317Z,62.88
2022-08-30T17:55:11.556Z,298.50
2022-08-30T17:57:44.354Z,438.33
2022-08-30T18:00:15.653Z,399.40
2022-08-30T18:02:44.050Z,353.35
2022-08-30T18:05:12.156Z,402.42
2022-08-30T18:07:40.722Z,384.70
2022-08-30T18:10:09.467Z,320.45
2022-08-30T18:12:38.196Z,216.75
2022-08-30T18:15:12.588Z,294.40
2022-08-30T18:17:47.664Z,54.58
2022-08-30T18:20:16.146Z,114.88
2022-08-30T18:22:44.061Z,7.68
2022-08-30T18:25:14.901Z,5.72
2022-08-30T18:27:45.815Z,15.30
2022-08-30T18:30:31.161Z,8.02
2022-08-30T18:33:02.983Z,6.80
2022-08-30T18:35:34.574Z,8.63
2022-08-30T18:38:04.724Z,26.10
2022-08-30T18:40:32.691Z,5.75
2022-08-30T18:43:07.935Z,7.60
2022-08-30T18:45:36.253Z,7.35
2022-08-30T18:48:06.586Z,50.05
2022-08-30T18:50:34.718Z,191.57
2022-08-30T18:53:03.072Z,364.10
2022-08-30T18:55:31.020Z,390.98
2022-08-30T18:57:59.126Z,461.08
2022-08-30T19:00:29.968Z,399.25
2022-08-30T19:02:57.799Z,321.20
2022-08-30T19:05:27.857Z,313.70
2022-08-30T19:07:56.358Z,428.80
2022-08-30T19:10:26.799Z,354.10
2022-08-30T19:12:55.990Z,344.35
2022-08-30T19:15:24.142Z,319.40
2022-08-30T19:17:52.031Z,30.25
2022-08-30T19:20:24.748Z,7.32
2022-08-30T19:23:09.310Z,9.00
2022-08-30T19:25:38.034Z,10.38
2022-08-30T19:28:06.612Z,85.97
2022-08-30T19:30:41.053Z,181.88
2022-08-30T19:33:13.656Z,298.38
2022-08-30T19:35:51.432Z,347.30
2022-08-30T19:38:21.220Z,388.70
2022-08-30T19:40:53.987Z,377.83
2022-08-30T19:43:22.694Z,380.15
2022-08-30T19:45:54.783Z,319.95
2022-08-30T19:48:23.236Z,343.10
2022-08-30T19:50:57.435Z,359.23
2022-08-30T19:53:27.768Z,349.33
2022-08-30T19:55:55.583Z,369.20
2022-08-30T19:58:23.591Z,334.50
2022-08-30T20:03:39.931Z,350.73
2022-08-30T20:06:08.961Z,373.17
2022-08-30T20:08:38.697Z,366.63
2022-08-30T20:11:07.659Z,364.23
2022-08-30T20:13:38.980Z,356.85
2022-08-30T20:16:07.553Z,370.52
2022-08-30T20:18:37.184Z,381.02
2022-08-30T20:21:05.479Z,373.98
2022-08-30T20:23:43.254Z,329.55
2022-08-30T20:26:12.321Z,363.92
2022-08-30T20:28:40.861Z,341.42
2022-08-30T20:31:11.215Z,6.68
2022-08-30T20:33:41.097Z,17.25
2022-08-30T20:36:11.320Z,218.18
2022-08-30T20:38:40.166Z,13.40
2022-08-30T20:41:13.053Z,12.23
2022-08-30T20:43:41.266Z,10.02
2022-08-30T20:46:10.681Z,5.90
2022-08-30T20:48:39.326Z,7.93
2022-08-30T20:51:09.441Z,5.85
2022-08-30T20:53:37.446Z,7.32
2022-08-30T20:56:05.730Z,4.68
2022-08-30T20:58:35.006Z,7.13
2022-08-30T21:01:02.997Z,7.53
2022-08-30T21:03:32.703Z,7.68
2022-08-30T21:06:00.884Z,131.82
2022-08-30T21:08:29.110Z,139.75
2022-08-30T21:10:56.987Z,149.15
2022-08-30T21:13:25.319Z,252.82
2022-08-30T21:16:00.300Z,314.58
2022-08-30T21:18:33.041Z,333.42
2022-08-30T21:21:01.328Z,328.70
2022-08-30T21:23:29.406Z,362.05
2022-08-30T21:26:01.257Z,353.50
2022-08-30T21:28:29.325Z,348.95
2022-08-30T21:31:07.004Z,362.42
2022-08-30T21:33:35.250Z,253.30
2022-08-30T21:36:20.718Z,358.17
2022-08-30T21:38:48.890Z,370.23
2022-08-30T21:41:17.440Z,377.08
2022-08-30T21:43:47.444Z,319.65
2022-08-30T21:46:17.920Z,318.27
2022-08-30T21:48:46.697Z,326.55
2022-08-30T21:51:14.848Z,377.08
2022-08-30T21:53:42.849Z,370.80
2022-08-30T21:56:13.517Z,261.40
2022-08-30T21:58:45.498Z,38.55
2022-08-30T22:01:17.508Z,183.43
2022-08-30T22:03:46.778Z,293.92
2022-08-30T22:06:15.698Z,54.67
2022-08-30T22:08:45.683Z,7.53
2022-08-30T22:11:16.861Z,6.47
2022-08-30T22:13:46.370Z,7.45
2022-08-30T22:16:18.180Z,6.00
2022-08-30T22:18:46.570Z,7.53
2022-08-30T22:21:16.418Z,6.82
2022-08-30T22:23:45.079Z,8.40
2022-08-30T22:26:14.261Z,6.97
2022-08-30T22:28:42.378Z,9.10
2022-08-30T22:31:12.885Z,7.00
2022-08-30T22:33:43.056Z,7.95
2022-08-30T22:36:13.868Z,8.20
2022-08-30T22:38:42.536Z,8.40
2022-08-30T22:41:11.982Z,13.63
2022-08-30T22:43:40.325Z,9.68
2022-08-30T22:46:08.472Z,115.28
2022-08-30T22:48:37.358Z,198.38
2022-08-30T22:51:07.109Z,287.77
2022-08-30T22:53:35.479Z,239.10
2022-08-30T22:56:09.642Z,275.90
2022-08-30T22:58:37.923Z,316.13
2022-08-30T23:01:07.013Z,360.10
2022-08-30T23:03:35.628Z,274.00
2022-08-30T23:06:03.960Z,278.40
2022-08-30T23:08:33.262Z,290.20
2022-08-30T23:11:01.266Z,10.27
2022-08-30T23:13:29.151Z,297.10
2022-08-30T23:15:57.400Z,322.15
2022-08-30T23:18:25.320Z,11.00
2022-08-30T23:20:53.582Z,10.10
2022-08-30T23:23:38.743Z,9.90
2022-08-30T23:26:25.773Z,7.43
2022-08-30T23:29:11.046Z,9.38
2022-08-30T23:31:56.387Z,7.60
2022-08-30T23:34:41.858Z,11.07
2022-08-30T23:37:27.091Z,370.85
2022-08-30T23:40:12.387Z,292.73
2022-08-30T23:43:00.967Z,317.20
2022-08-30T23:45:46.651Z,97.53
2022-08-30T23:48:31.852Z,96.70
2022-08-30T23:51:21.822Z,292.75
2022-08-30T23:54:07.945Z,154.07
2022-08-30T23:56:53.370Z,352.05
2022-08-30T23:59:40.158Z,345.38
